Chaser — WDE5354 — position and weather

sailwx.info

Track history (hours):
 
Tides and Currents Weather Stations Pressure Air Temp Water Temp Dewpoint Dewpoint Depression Visibility Wind Speed Wind Dir Waves Ship Positions

Chaser

Owner: Chaser Parent's Club Inc., Benicia, CA. More information available from US FCC via Universal Licensing System and Coast Guard Vessel Documentation Center.

Last reported at 2018-Feb-19 21:22 UTC. Time now 2018-Feb-21 14:43 UTC.
Position N 38°14' W 122°18'.

Length 30 m; draft 3 m.

Type: Pleasure craft. MMSI: 367365440.

Date/timePositionNaut miles runAvg speedWind from/ knotsBaromVisibWave heightAir tempDewpointWater temp
2018-Feb-19 21:22N 38°14' W 122°18'3 6.2
2018-Feb-19 20:55N 38°11' W 122°19'4 7.1
2018-Feb-19 20:19N 38°07' W 122°17'3 8.8
2018-Feb-19 20:00N 38°05' W 122°15'4 7.3
2018-Feb-19 19:30N 38°03' W 122°19'4 8.2
2018-Feb-19 19:00N 38°01' W 122°23'4 8.2
2018-Feb-19 18:30N 37°57' W 122°26'4 8.2
2018-Feb-19 18:00N 37°53' W 122°25'4 7.2
2018-Feb-19 17:30N 37°50' W 122°23'3 6.3
2018-Feb-19 17:01N 37°47' W 122°23'0 0.8
2018-Feb-19 16:29N 37°47' W 122°23'0 0.0
2018-Feb-19 15:59N 37°47' W 122°23'0 0.0
2018-Feb-19 15:29N 37°47' W 122°23'0 0.0
2018-Feb-19 14:59N 37°47' W 122°23'0 0.0
2018-Feb-19 14:29N 37°47' W 122°23'0 0.0
2018-Feb-19 13:59N 37°47' W 122°23'0 0.0
2018-Feb-19 13:29N 37°47' W 122°23'0 0.0
2018-Feb-19 12:59N 37°47' W 122°23'0 0.0
2018-Feb-19 12:29N 37°47' W 122°23'0 0.0
2018-Feb-19 11:59N 37°47' W 122°23'0 0.0
2018-Feb-19 11:29N 37°47' W 122°23'0 0.0
2018-Feb-19 10:59N 37°47' W 122°23'0 0.0
2018-Feb-19 10:29N 37°47' W 122°23'0 0.0
2018-Feb-19 09:59N 37°47' W 122°23'0 0.0
2018-Feb-19 09:29N 37°47' W 122°23'0 0.0
2018-Feb-19 08:59N 37°47' W 122°23'0 0.0
2018-Feb-19 08:23N 37°47' W 122°23'0 0.0
2018-Feb-19 07:59N 37°47' W 122°23'0 0.0
2018-Feb-19 07:29N 37°47' W 122°23'0 0.0
2018-Feb-19 06:59N 37°47' W 122°23'0 0.0
2018-Feb-19 06:29N 37°47' W 122°23'0 0.0
2018-Feb-19 05:59N 37°47' W 122°23'0 0.0
2018-Feb-19 05:29N 37°47' W 122°23'0 0.0
2018-Feb-19 04:59N 37°47' W 122°23'0 0.0
2018-Feb-19 04:29N 37°47' W 122°23'0 0.0
2018-Feb-19 03:56N 37°47' W 122°23'0 0.0
2018-Feb-19 03:29N 37°47' W 122°23'0 0.0
2018-Feb-19 02:59N 37°47' W 122°23'0 0.0
2018-Feb-19 02:29N 37°47' W 122°23'0 0.0
2018-Feb-19 01:59N 37°47' W 122°23'0 0.0
2018-Feb-19 01:30N 37°47' W 122°23'0 0.4
2018-Feb-19 01:00N 37°47' W 122°23'3 5.1
2018-Feb-19 00:30N 37°49' W 122°25'3 6.5
2018-Feb-19 00:00N 37°52' W 122°27'1 1.5
2018-Feb-18 23:29N 37°52' W 122°26'0 0.0
2018-Feb-18 22:56N 37°52' W 122°26'0 0.0
2018-Feb-18 22:29N 37°52' W 122°26'0 0.0
2018-Feb-18 21:59N 37°52' W 122°26'0 0.0
2018-Feb-18 21:29N 37°52' W 122°26'0 0.0
2018-Feb-18 20:59N 37°52' W 122°26'0 0.0
2018-Feb-18 20:29N 37°52' W 122°26'0 0.0
2018-Feb-18 19:59N 37°52' W 122°26'0 0.0
2018-Feb-18 19:29N 37°52' W 122°26'0 0.0
2018-Feb-18 18:59N 37°52' W 122°26'0 0.0
2018-Feb-18 18:29N 37°52' W 122°26'0 0.0
2018-Feb-18 17:59N 37°52' W 122°26'2 0.8
2018-Feb-18 15:06N 37°54' W 122°27'0 0.1
2018-Feb-18 15:00N 37°54' W 122°27'0 0.0
2018-Feb-18 14:30N 37°54' W 122°27'0 0.0
2018-Feb-18 13:57N 37°54' W 122°27'0 0.0
2018-Feb-18 13:30N 37°54' W 122°27'0 0.0
2018-Feb-18 13:00N 37°54' W 122°27'0 0.0
2018-Feb-18 12:30N 37°54' W 122°27'0 0.0
2018-Feb-18 12:00N 37°54' W 122°27'0 0.0
2018-Feb-18 11:30N 37°54' W 122°27'0 0.0
2018-Feb-18 11:00N 37°54' W 122°27'0 0.0
2018-Feb-18 10:30N 37°54' W 122°27'0 0.0
2018-Feb-18 10:00N 37°54' W 122°27'0 0.0
2018-Feb-18 09:30N 37°54' W 122°27'0 0.0
2018-Feb-18 09:00N 37°54' W 122°27'0 0.0
2018-Feb-18 08:30N 37°54' W 122°27'0 0.0
2018-Feb-18 08:00N 37°54' W 122°27'0 0.0
2018-Feb-18 07:30N 37°54' W 122°27'0 0.0
2018-Feb-18 07:00N 37°54' W 122°27'0 0.0
2018-Feb-18 06:30N 37°54' W 122°27'0 0.0
2018-Feb-18 06:00N 37°54' W 122°27'0 0.0
2018-Feb-18 05:30N 37°54' W 122°27'0 0.0
2018-Feb-18 05:00N 37°54' W 122°27'0 0.0
2018-Feb-18 04:27N 37°54' W 122°27'0 0.0
2018-Feb-18 04:00N 37°54' W 122°27'0 0.0
2018-Feb-18 03:30N 37°54' W 122°27'0 0.0
2018-Feb-18 03:00N 37°54' W 122°27'0 0.0
2018-Feb-18 02:30N 37°54' W 122°27'0 0.0
2018-Feb-18 02:00N 37°54' W 122°27'0 0.0
2018-Feb-18 01:27N 37°54' W 122°27'0 0.0
2018-Feb-18 01:00N 37°54' W 122°27'0 0.0
2018-Feb-18 00:30N 37°54' W 122°27'0 0.0
2018-Feb-18 00:00N 37°54' W 122°27'2 4.2
2018-Feb-17 23:31N 37°56' W 122°27'5 9.2
2018-Feb-17 23:00N 38°00' W 122°24'4 8.3
2018-Feb-17 22:30N 38°02' W 122°19'4 6.9
2018-Feb-17 21:59N 38°04' W 122°15'4 3.7
2018-Feb-17 20:57N 38°07' W 122°17'2 3.2
2018-Feb-17 20:29N 38°09' W 122°17'3 5.5
2018-Feb-17 20:00N 38°11' W 122°19'3 5.2
2018-Feb-17 19:30N 38°14' W 122°18'  
Track history (hours):
 
Tides and Currents Weather Stations Pressure Air Temp Water Temp Dewpoint Dewpoint Depression Visibility Wind Speed Wind Dir Waves Ship Positions

Chaser

Owner: Chaser Parent's Club Inc., Benicia, CA. More information available from US FCC via Universal Licensing System and Coast Guard Vessel Documentation Center.

Last reported at 2018-Feb-19 21:22 UTC. Time now 2018-Feb-21 14:43 UTC.
Position N 38°14' W 122°18'.

Length 30 m; draft 3 m.

Type: Pleasure craft. MMSI: 367365440.

Date/timePositionNaut miles runAvg speedWind from/ knotsBaromVisibWave heightAir tempDewpointWater temp
2018-Feb-19 21:22N 38°14' W 122°18'3 6.2
2018-Feb-19 20:55N 38°11' W 122°19'4 7.1
2018-Feb-19 20:19N 38°07' W 122°17'3 8.8
2018-Feb-19 20:00N 38°05' W 122°15'4 7.3
2018-Feb-19 19:30N 38°03' W 122°19'4 8.2
2018-Feb-19 19:00N 38°01' W 122°23'4 8.2
2018-Feb-19 18:30N 37°57' W 122°26'4 8.2
2018-Feb-19 18:00N 37°53' W 122°25'4 7.2
2018-Feb-19 17:30N 37°50' W 122°23'3 6.3
2018-Feb-19 17:01N 37°47' W 122°23'0 0.8
2018-Feb-19 16:29N 37°47' W 122°23'0 0.0
2018-Feb-19 15:59N 37°47' W 122°23'0 0.0
2018-Feb-19 15:29N 37°47' W 122°23'0 0.0
2018-Feb-19 14:59N 37°47' W 122°23'0 0.0
2018-Feb-19 14:29N 37°47' W 122°23'0 0.0
2018-Feb-19 13:59N 37°47' W 122°23'0 0.0
2018-Feb-19 13:29N 37°47' W 122°23'0 0.0
2018-Feb-19 12:59N 37°47' W 122°23'0 0.0
2018-Feb-19 12:29N 37°47' W 122°23'0 0.0
2018-Feb-19 11:59N 37°47' W 122°23'0 0.0
2018-Feb-19 11:29N 37°47' W 122°23'0 0.0
2018-Feb-19 10:59N 37°47' W 122°23'0 0.0
2018-Feb-19 10:29N 37°47' W 122°23'0 0.0
2018-Feb-19 09:59N 37°47' W 122°23'0 0.0
2018-Feb-19 09:29N 37°47' W 122°23'0 0.0
2018-Feb-19 08:59N 37°47' W 122°23'0 0.0
2018-Feb-19 08:23N 37°47' W 122°23'0 0.0
2018-Feb-19 07:59N 37°47' W 122°23'0 0.0
2018-Feb-19 07:29N 37°47' W 122°23'0 0.0
2018-Feb-19 06:59N 37°47' W 122°23'0 0.0
2018-Feb-19 06:29N 37°47' W 122°23'0 0.0
2018-Feb-19 05:59N 37°47' W 122°23'0 0.0
2018-Feb-19 05:29N 37°47' W 122°23'0 0.0
2018-Feb-19 04:59N 37°47' W 122°23'0 0.0
2018-Feb-19 04:29N 37°47' W 122°23'0 0.0
2018-Feb-19 03:56N 37°47' W 122°23'0 0.0
2018-Feb-19 03:29N 37°47' W 122°23'0 0.0
2018-Feb-19 02:59N 37°47' W 122°23'0 0.0
2018-Feb-19 02:29N 37°47' W 122°23'0 0.0
2018-Feb-19 01:59N 37°47' W 122°23'0 0.0
2018-Feb-19 01:30N 37°47' W 122°23'0 0.4
2018-Feb-19 01:00N 37°47' W 122°23'3 5.1
2018-Feb-19 00:30N 37°49' W 122°25'3 6.5
2018-Feb-19 00:00N 37°52' W 122°27'1 1.5
2018-Feb-18 23:29N 37°52' W 122°26'0 0.0
2018-Feb-18 22:56N 37°52' W 122°26'0 0.0
2018-Feb-18 22:29N 37°52' W 122°26'0 0.0
2018-Feb-18 21:59N 37°52' W 122°26'0 0.0
2018-Feb-18 21:29N 37°52' W 122°26'0 0.0
2018-Feb-18 20:59N 37°52' W 122°26'0 0.0
2018-Feb-18 20:29N 37°52' W 122°26'0 0.0
2018-Feb-18 19:59N 37°52' W 122°26'0 0.0
2018-Feb-18 19:29N 37°52' W 122°26'0 0.0
2018-Feb-18 18:59N 37°52' W 122°26'0 0.0
2018-Feb-18 18:29N 37°52' W 122°26'0 0.0
2018-Feb-18 17:59N 37°52' W 122°26'2 0.8
2018-Feb-18 15:06N 37°54' W 122°27'0 0.1
2018-Feb-18 15:00N 37°54' W 122°27'0 0.0
2018-Feb-18 14:30N 37°54' W 122°27'0 0.0
2018-Feb-18 13:57N 37°54' W 122°27'0 0.0
2018-Feb-18 13:30N 37°54' W 122°27'0 0.0
2018-Feb-18 13:00N 37°54' W 122°27'0 0.0
2018-Feb-18 12:30N 37°54' W 122°27'0 0.0
2018-Feb-18 12:00N 37°54' W 122°27'0 0.0
2018-Feb-18 11:30N 37°54' W 122°27'0 0.0
2018-Feb-18 11:00N 37°54' W 122°27'0 0.0
2018-Feb-18 10:30N 37°54' W 122°27'0 0.0
2018-Feb-18 10:00N 37°54' W 122°27'0 0.0
2018-Feb-18 09:30N 37°54' W 122°27'0 0.0
2018-Feb-18 09:00N 37°54' W 122°27'0 0.0
2018-Feb-18 08:30N 37°54' W 122°27'0 0.0
2018-Feb-18 08:00N 37°54' W 122°27'0 0.0
2018-Feb-18 07:30N 37°54' W 122°27'0 0.0
2018-Feb-18 07:00N 37°54' W 122°27'0 0.0
2018-Feb-18 06:30N 37°54' W 122°27'0 0.0
2018-Feb-18 06:00N 37°54' W 122°27'0 0.0
2018-Feb-18 05:30N 37°54' W 122°27'0 0.0
2018-Feb-18 05:00N 37°54' W 122°27'0 0.0
2018-Feb-18 04:27N 37°54' W 122°27'0 0.0
2018-Feb-18 04:00N 37°54' W 122°27'0 0.0
2018-Feb-18 03:30N 37°54' W 122°27'0 0.0
2018-Feb-18 03:00N 37°54' W 122°27'0 0.0
2018-Feb-18 02:30N 37°54' W 122°27'0 0.0
2018-Feb-18 02:00N 37°54' W 122°27'0 0.0
2018-Feb-18 01:27N 37°54' W 122°27'0 0.0
2018-Feb-18 01:00N 37°54' W 122°27'0 0.0
2018-Feb-18 00:30N 37°54' W 122°27'0 0.0
2018-Feb-18 00:00N 37°54' W 122°27'2 4.2
2018-Feb-17 23:31N 37°56' W 122°27'5 9.2
2018-Feb-17 23:00N 38°00' W 122°24'4 8.3
2018-Feb-17 22:30N 38°02' W 122°19'4 6.9
2018-Feb-17 21:59N 38°04' W 122°15'4 3.7
2018-Feb-17 20:57N 38°07' W 122°17'2 3.2
2018-Feb-17 20:29N 38°09' W 122°17'3 5.5
2018-Feb-17 20:00N 38°11' W 122°19'3 5.2
2018-Feb-17 19:30N 38°14' W 122°18'  

Dump ship's entire track history